createdAt,value
2019-03-24T00:00:45.434Z,23.38
2019-03-24T00:03:15.082Z,25.40
2019-03-24T00:05:44.765Z,23.60
2019-03-24T00:08:14.404Z,23.62
2019-03-24T00:10:44.093Z,23.85
2019-03-24T00:13:13.740Z,23.27
2019-03-24T00:15:43.360Z,24.07
2019-03-24T00:18:13.004Z,23.55
2019-03-24T00:20:42.618Z,23.30
2019-03-24T00:23:12.267Z,23.60
2019-03-24T00:25:41.886Z,23.52
2019-03-24T00:28:11.597Z,24.50
2019-03-24T00:30:41.217Z,24.12
2019-03-24T00:33:10.877Z,25.37
2019-03-24T00:35:40.493Z,24.15
2019-03-24T00:38:10.183Z,22.93
2019-03-24T00:40:39.834Z,22.85
2019-03-24T00:43:09.450Z,23.12
2019-03-24T00:45:39.097Z,22.45
2019-03-24T00:48:08.714Z,22.42
2019-03-24T00:50:38.351Z,22.75
2019-03-24T00:53:08.039Z,22.25
2019-03-24T00:55:37.753Z,22.73
2019-03-24T00:58:07.370Z,23.15
2019-03-24T01:00:51.807Z,23.00
2019-03-24T01:03:21.567Z,21.97
2019-03-24T01:05:51.290Z,21.42
2019-03-24T01:08:20.979Z,21.07
2019-03-24T01:10:50.594Z,22.48
2019-03-24T01:13:20.311Z,23.15
2019-03-24T01:15:50.001Z,21.87
2019-03-24T01:18:19.647Z,22.30
2019-03-24T01:20:49.271Z,22.90
2019-03-24T01:23:18.989Z,21.65
2019-03-24T01:25:48.605Z,21.62
2019-03-24T01:28:18.322Z,21.45
2019-03-24T01:30:47.941Z,21.15
2019-03-24T01:33:17.561Z,23.98
2019-03-24T01:35:47.201Z,24.52
2019-03-24T01:38:16.821Z,23.70
2019-03-24T01:40:46.466Z,23.95
2019-03-24T01:43:16.159Z,24.37
2019-03-24T01:45:45.800Z,22.67
2019-03-24T01:48:15.412Z,24.63
2019-03-24T01:50:45.057Z,23.67
2019-03-24T01:53:14.676Z,24.47
2019-03-24T01:55:44.391Z,26.12
2019-03-24T01:58:14.003Z,26.25
2019-03-24T02:00:43.653Z,27.55
2019-03-24T02:03:13.338Z,25.45
2019-03-24T02:05:42.956Z,26.87
2019-03-24T02:08:12.602Z,26.37
2019-03-24T02:10:42.288Z,25.05
2019-03-24T02:13:12.005Z,24.67
2019-03-24T02:15:41.712Z,25.15
2019-03-24T02:18:11.335Z,25.90
2019-03-24T02:20:41.027Z,24.70
2019-03-24T02:23:10.673Z,25.52
2019-03-24T02:25:40.290Z,22.98
2019-03-24T02:28:10.021Z,22.82
2019-03-24T02:30:39.643Z,22.65
2019-03-24T02:33:09.257Z,23.20
2019-03-24T02:35:38.908Z,21.40
2019-03-24T02:38:08.591Z,22.02
2019-03-24T02:40:38.240Z,21.57
2019-03-24T02:43:07.859Z,21.02
2019-03-24T02:45:37.505Z,21.70
2019-03-24T02:48:07.199Z,22.62
2019-03-24T02:50:36.841Z,22.90
2019-03-24T02:53:06.455Z,21.75
2019-03-24T02:55:36.122Z,21.10
2019-03-24T02:58:05.807Z,21.85
2019-03-24T03:00:35.631Z,22.50
2019-03-24T03:03:05.351Z,24.63
2019-03-24T03:05:35.045Z,22.95
2019-03-24T03:08:04.823Z,23.12
2019-03-24T03:10:36.086Z,20.30
2019-03-24T03:13:05.737Z,23.32
2019-03-24T03:15:35.366Z,21.97
2019-03-24T03:18:05.147Z,21.35
2019-03-24T03:20:34.826Z,24.00
2019-03-24T03:23:04.554Z,24.50
2019-03-24T03:25:34.180Z,24.50
2019-03-24T03:28:03.815Z,24.63
2019-03-24T03:30:33.440Z,24.82
2019-03-24T03:33:03.069Z,25.72
2019-03-24T03:35:32.709Z,25.20
2019-03-24T03:38:02.341Z,24.82
2019-03-24T03:40:31.974Z,24.72
2019-03-24T03:43:01.603Z,25.08
2019-03-24T03:45:31.446Z,26.07
2019-03-24T03:48:01.079Z,26.45
2019-03-24T03:50:30.863Z,25.32
2019-03-24T03:53:00.557Z,25.92
2019-03-24T03:55:30.200Z,24.63
2019-03-24T03:57:59.834Z,26.20
2019-03-24T04:00:37.872Z,25.08
2019-03-24T04:03:08.105Z,24.77
2019-03-24T04:05:37.745Z,25.40
2019-03-24T04:08:07.935Z,22.50
2019-03-24T04:10:37.583Z,23.83
2019-03-24T04:13:07.279Z,24.98
2019-03-24T04:15:36.943Z,24.40
2019-03-24T04:18:06.557Z,24.47
2019-03-24T04:20:36.256Z,31.45
2019-03-24T04:23:05.975Z,30.10
2019-03-24T04:25:35.597Z,27.70
2019-03-24T04:28:05.385Z,25.52
2019-03-24T04:30:35.016Z,24.85
2019-03-24T04:33:04.669Z,25.35
2019-03-24T04:35:34.277Z,27.82
2019-03-24T04:38:03.942Z,28.20
2019-03-24T04:40:33.548Z,28.17
2019-03-24T04:43:03.197Z,27.50
2019-03-24T04:45:32.826Z,26.07
2019-03-24T04:48:03.357Z,25.40
2019-03-24T04:50:32.974Z,25.35
2019-03-24T04:53:02.599Z,25.25
2019-03-24T04:55:32.311Z,25.82
2019-03-24T04:58:01.932Z,27.45
2019-03-24T05:00:37.285Z,27.40
2019-03-24T05:03:06.964Z,26.85
2019-03-24T05:05:37.537Z,27.17
2019-03-24T05:08:07.501Z,26.85
2019-03-24T05:10:37.143Z,26.60
2019-03-24T05:13:06.771Z,26.48
2019-03-24T05:15:36.416Z,27.30
2019-03-24T05:18:06.176Z,26.57
2019-03-24T05:20:35.819Z,24.27
2019-03-24T05:23:05.446Z,25.00
2019-03-24T05:25:35.089Z,24.30
2019-03-24T05:28:04.788Z,22.98
2019-03-24T05:30:34.439Z,22.60
2019-03-24T05:33:04.060Z,24.92
2019-03-24T05:35:33.687Z,23.35
2019-03-24T05:38:03.325Z,25.35
2019-03-24T05:40:32.948Z,24.75
2019-03-24T05:43:02.601Z,24.37
2019-03-24T05:45:32.219Z,25.40
2019-03-24T05:48:01.867Z,23.10
2019-03-24T05:50:31.487Z,24.70
2019-03-24T05:53:01.143Z,21.90
2019-03-24T05:55:30.830Z,23.73
2019-03-24T05:58:00.475Z,24.90
2019-03-24T06:00:30.093Z,23.35
2019-03-24T06:02:59.748Z,24.30
2019-03-24T06:05:29.453Z,24.23
2019-03-24T06:07:59.120Z,25.32
2019-03-24T06:10:28.743Z,24.40
2019-03-24T06:12:58.368Z,26.90
2019-03-24T06:15:28.009Z,25.43
2019-03-24T06:17:57.632Z,25.25
2019-03-24T06:20:27.273Z,24.43
2019-03-24T06:22:56.885Z,23.73
2019-03-24T06:25:26.527Z,25.15
2019-03-24T06:27:56.214Z,23.67
2019-03-24T06:30:25.865Z,91.47
2019-03-24T06:32:55.480Z,44.35
2019-03-24T06:35:25.142Z,27.15
2019-03-24T06:37:54.768Z,26.37
2019-03-24T06:40:24.385Z,25.08
2019-03-24T06:42:54.033Z,24.30
2019-03-24T06:45:28.514Z,24.72
2019-03-24T06:47:58.153Z,25.92
2019-03-24T06:50:26.378Z,25.45
2019-03-24T06:52:56.008Z,26.65
2019-03-24T06:55:25.637Z,24.60
2019-03-24T06:57:55.294Z,25.60
2019-03-24T07:00:24.922Z,25.88
2019-03-24T07:02:54.649Z,25.92
2019-03-24T07:05:24.264Z,24.37
2019-03-24T07:07:53.895Z,24.32
2019-03-24T07:10:23.544Z,26.97
2019-03-24T07:12:53.164Z,26.70
2019-03-24T07:15:22.817Z,24.00
2019-03-24T07:17:52.444Z,26.05
2019-03-24T07:20:22.086Z,24.32
2019-03-24T07:22:51.715Z,25.85
2019-03-24T07:25:21.432Z,26.62
2019-03-24T07:27:51.156Z,26.07
2019-03-24T07:30:21.133Z,23.25
2019-03-24T07:32:50.755Z,23.70
2019-03-24T07:35:20.377Z,26.12
2019-03-24T07:37:50.016Z,24.95
2019-03-24T07:40:19.777Z,26.85
2019-03-24T07:42:49.420Z,26.55
2019-03-24T07:45:19.118Z,28.38
2019-03-24T07:47:49.157Z,26.70
2019-03-24T07:50:19.012Z,25.95
2019-03-24T07:52:48.652Z,25.55
2019-03-24T07:55:18.270Z,28.62
2019-03-24T07:57:47.916Z,28.15
2019-03-24T08:00:22.124Z,29.55
2019-03-24T08:05:21.658Z,28.05
2019-03-24T08:07:51.284Z,28.42
2019-03-24T08:10:20.933Z,29.45
2019-03-24T08:12:52.304Z,33.05
2019-03-24T08:15:22.094Z,29.90
2019-03-24T08:17:51.718Z,31.07
2019-03-24T08:20:21.362Z,34.33
2019-03-24T08:22:50.982Z,32.85
2019-03-24T08:25:20.628Z,30.37
2019-03-24T08:27:50.254Z,33.75
2019-03-24T08:30:33.162Z,33.98
2019-03-24T08:33:02.864Z,33.25
2019-03-24T08:35:32.555Z,35.08
2019-03-24T08:38:02.193Z,36.28
2019-03-24T08:40:31.983Z,38.73
2019-03-24T08:43:01.632Z,38.83
2019-03-24T08:45:32.152Z,38.58
2019-03-24T08:48:01.879Z,34.70
2019-03-24T08:50:31.493Z,35.95
2019-03-24T08:53:01.144Z,39.00
2019-03-24T08:55:30.767Z,36.83
2019-03-24T08:58:00.419Z,36.15
2019-03-24T09:00:31.058Z,39.75
2019-03-24T09:03:00.831Z,41.80
2019-03-24T09:05:30.454Z,39.05
2019-03-24T09:08:00.081Z,40.00
2019-03-24T09:10:29.794Z,40.25
2019-03-24T09:12:59.414Z,39.40
2019-03-24T09:15:29.065Z,40.80
2019-03-24T09:17:58.684Z,41.23
2019-03-24T09:20:28.329Z,43.02
2019-03-24T09:22:57.953Z,41.05
2019-03-24T09:25:27.656Z,39.63
2019-03-24T09:27:57.300Z,42.43
2019-03-24T09:30:38.036Z,43.25
2019-03-24T09:33:07.796Z,42.38
2019-03-24T09:35:38.280Z,42.98
2019-03-24T09:38:08.237Z,42.50
2019-03-24T09:40:38.109Z,43.70
2019-03-24T09:43:07.930Z,44.53
2019-03-24T09:45:37.843Z,44.33
2019-03-24T09:48:07.883Z,42.13
2019-03-24T09:50:37.826Z,45.90
2019-03-24T09:53:07.628Z,45.80
2019-03-24T09:55:37.261Z,42.35
2019-03-24T09:58:07.053Z,45.80
2019-03-24T10:00:36.760Z,45.88
2019-03-24T10:03:06.556Z,46.58
2019-03-24T10:05:36.190Z,46.42
2019-03-24T10:08:05.910Z,45.63
2019-03-24T10:10:35.544Z,47.62
2019-03-24T10:13:05.202Z,45.92
2019-03-24T10:15:34.885Z,47.55
2019-03-24T10:18:04.686Z,45.15
2019-03-24T10:20:34.304Z,48.58
2019-03-24T10:23:03.959Z,45.20
2019-03-24T10:25:33.600Z,44.00
2019-03-24T10:28:03.222Z,45.35
2019-03-24T10:30:32.871Z,44.10
2019-03-24T10:33:03.745Z,45.52
2019-03-24T10:35:33.407Z,42.53
2019-03-24T10:38:03.025Z,43.55
2019-03-24T10:40:32.762Z,42.58
2019-03-24T10:43:02.382Z,42.75
2019-03-24T10:45:32.103Z,42.38
2019-03-24T10:48:01.739Z,44.20
2019-03-24T10:50:31.434Z,43.13
2019-03-24T10:53:01.095Z,43.63
2019-03-24T10:55:30.755Z,40.92
2019-03-24T10:58:00.377Z,43.60
2019-03-24T11:00:39.461Z,43.35
2019-03-24T11:03:09.258Z,42.45
2019-03-24T11:05:38.936Z,41.77
2019-03-24T11:08:08.707Z,42.10
2019-03-24T11:10:38.637Z,41.68
2019-03-24T11:13:08.325Z,39.98
2019-03-24T11:15:38.096Z,41.30
2019-03-24T11:18:07.883Z,40.10
2019-03-24T11:20:37.523Z,37.93
2019-03-24T11:23:07.179Z,42.00
2019-03-24T11:25:36.804Z,38.80
2019-03-24T11:28:06.605Z,40.40
2019-03-24T11:30:36.372Z,40.88
2019-03-24T11:33:06.162Z,40.55
2019-03-24T11:35:35.791Z,42.70
2019-03-24T11:38:05.419Z,38.48
2019-03-24T11:40:35.068Z,38.83
2019-03-24T11:43:04.840Z,38.83
2019-03-24T11:45:34.570Z,39.00
2019-03-24T11:48:04.366Z,40.95
2019-03-24T11:50:34.094Z,40.35
2019-03-24T11:53:03.731Z,42.73
2019-03-24T11:55:33.384Z,45.00
2019-03-24T11:58:06.081Z,45.23
2019-03-24T12:00:37.363Z,47.40
2019-03-24T12:03:07.243Z,43.70
2019-03-24T12:05:36.964Z,45.92
2019-03-24T12:08:06.803Z,43.45
2019-03-24T12:10:36.547Z,47.35
2019-03-24T12:13:06.176Z,44.38
2019-03-24T12:15:36.046Z,48.17
2019-03-24T12:18:05.838Z,47.95
2019-03-24T12:20:35.538Z,46.48
2019-03-24T12:23:05.260Z,47.38
2019-03-24T12:25:34.879Z,48.98
2019-03-24T12:28:04.605Z,46.98
2019-03-24T12:30:34.231Z,46.70
2019-03-24T12:33:03.955Z,47.08
2019-03-24T12:35:33.584Z,46.77
2019-03-24T12:38:03.651Z,46.58
2019-03-24T12:40:33.291Z,42.90
2019-03-24T12:43:02.921Z,44.30
2019-03-24T12:45:33.718Z,45.52
2019-03-24T12:48:03.584Z,45.28
2019-03-24T12:50:33.250Z,42.67
2019-03-24T12:53:02.949Z,43.75
2019-03-24T12:55:32.617Z,45.92
2019-03-24T12:58:02.238Z,44.23
2019-03-24T13:00:38.074Z,44.83
2019-03-24T13:03:07.918Z,45.40
2019-03-24T13:05:37.809Z,45.55
2019-03-24T13:08:15.869Z,43.50
2019-03-24T13:10:46.848Z,42.53
2019-03-24T13:13:16.549Z,43.23
2019-03-24T13:15:46.320Z,42.20
2019-03-24T13:18:15.988Z,39.33
2019-03-24T13:20:45.685Z,41.05
2019-03-24T13:23:15.354Z,41.53
2019-03-24T13:25:44.986Z,43.05
2019-03-24T13:28:14.645Z,39.70
2019-03-24T13:30:44.278Z,38.95
2019-03-24T13:33:13.942Z,41.40
2019-03-24T13:35:43.593Z,41.50
2019-03-24T13:38:13.255Z,40.23
2019-03-24T13:40:42.888Z,36.40
2019-03-24T13:43:12.517Z,36.75
2019-03-24T13:45:42.169Z,35.95
2019-03-24T13:48:11.864Z,34.90
2019-03-24T13:50:41.513Z,36.55
2019-03-24T13:53:11.216Z,37.15
2019-03-24T13:55:52.492Z,36.60
2019-03-24T13:58:22.135Z,37.58
2019-03-24T14:00:51.770Z,33.15
2019-03-24T14:03:21.410Z,35.88
2019-03-24T14:05:51.059Z,37.25
2019-03-24T14:08:20.760Z,36.38
2019-03-24T14:10:50.420Z,35.17
2019-03-24T14:13:20.058Z,35.60
2019-03-24T14:15:49.859Z,35.30
2019-03-24T14:18:19.484Z,37.23
2019-03-24T14:20:49.143Z,35.55
2019-03-24T14:23:18.785Z,35.95
2019-03-24T14:25:48.659Z,34.90
2019-03-24T14:28:18.293Z,35.60
2019-03-24T14:30:49.934Z,35.20
2019-03-24T14:33:19.699Z,32.60
2019-03-24T14:35:49.439Z,34.48
2019-03-24T14:38:19.235Z,34.13
2019-03-24T14:40:48.937Z,35.20
2019-03-24T14:43:18.926Z,33.30
2019-03-24T14:45:48.552Z,32.73
2019-03-24T14:48:18.280Z,32.25
2019-03-24T14:50:54.433Z,33.92
2019-03-24T14:53:19.296Z,34.33
2019-03-24T14:55:48.926Z,32.48
2019-03-24T14:58:18.581Z,32.95
2019-03-24T15:00:48.625Z,31.05
2019-03-24T15:03:22.182Z,33.55
2019-03-24T15:05:51.889Z,33.60
2019-03-24T15:08:21.547Z,32.30
2019-03-24T15:10:51.180Z,30.43
2019-03-24T15:13:20.851Z,31.85
2019-03-24T15:15:50.495Z,30.75
2019-03-24T15:18:20.196Z,30.68
2019-03-24T15:20:49.863Z,31.97
2019-03-24T15:23:19.489Z,31.57
2019-03-24T15:25:49.155Z,32.15
2019-03-24T15:28:18.791Z,32.08
2019-03-24T15:30:48.441Z,32.20
2019-03-24T15:33:18.079Z,31.40
2019-03-24T15:35:47.735Z,30.25
2019-03-24T15:38:17.366Z,33.85
2019-03-24T15:40:49.491Z,31.90
2019-03-24T15:43:18.385Z,34.80
2019-03-24T15:45:48.048Z,30.75
2019-03-24T15:48:17.680Z,32.75
2019-03-24T15:50:47.365Z,30.97
2019-03-24T15:53:16.996Z,30.57
2019-03-24T15:55:46.898Z,31.82
2019-03-24T15:58:16.557Z,31.77
2019-03-24T16:00:48.404Z,32.05
2019-03-24T16:03:18.298Z,34.13
2019-03-24T16:05:48.132Z,32.65
2019-03-24T16:08:17.879Z,33.78
2019-03-24T16:10:47.512Z,34.65
2019-03-24T16:13:17.164Z,33.78
2019-03-24T16:15:46.939Z,33.00
2019-03-24T16:18:16.617Z,32.93
2019-03-24T16:20:46.386Z,32.90
2019-03-24T16:23:16.020Z,34.88
2019-03-24T16:25:45.742Z,34.85
2019-03-24T16:28:15.372Z,33.70
2019-03-24T16:30:45.113Z,35.65
2019-03-24T16:33:14.812Z,34.53
2019-03-24T16:35:44.546Z,35.25
2019-03-24T16:38:14.188Z,35.17
2019-03-24T16:40:43.921Z,33.65
2019-03-24T16:43:13.557Z,34.58
2019-03-24T16:45:43.237Z,33.20
2019-03-24T16:48:12.962Z,36.88
2019-03-24T16:50:42.634Z,30.82
2019-03-24T16:53:12.342Z,32.73
2019-03-24T16:55:41.988Z,34.85
2019-03-24T16:58:11.633Z,33.75
2019-03-24T17:00:41.266Z,34.43
2019-03-24T17:03:10.927Z,32.63
2019-03-24T17:05:40.556Z,35.43
2019-03-24T17:08:10.298Z,34.18
2019-03-24T17:10:39.925Z,32.48
2019-03-24T17:13:09.579Z,33.80
2019-03-24T17:15:39.389Z,32.20
2019-03-24T17:18:09.187Z,32.60
2019-03-24T17:20:38.889Z,32.30
2019-03-24T17:23:08.542Z,31.73
2019-03-24T17:25:38.176Z,31.87
2019-03-24T17:28:07.851Z,30.57
2019-03-24T17:30:37.551Z,29.92
2019-03-24T17:33:07.318Z,28.87
2019-03-24T17:35:37.059Z,29.05
2019-03-24T17:38:06.813Z,29.48
2019-03-24T17:40:39.057Z,30.70
2019-03-24T17:43:08.073Z,33.33
2019-03-24T17:45:37.727Z,39.60
2019-03-24T17:48:07.412Z,37.17
2019-03-24T17:50:37.065Z,36.08
2019-03-24T17:53:07.062Z,38.02
2019-03-24T17:55:36.821Z,35.13
2019-03-24T17:58:06.803Z,31.73
2019-03-24T18:00:47.097Z,32.60
2019-03-24T18:03:16.797Z,33.02
2019-03-24T18:05:46.634Z,30.88
2019-03-24T18:08:16.287Z,32.45
2019-03-24T18:10:45.913Z,31.00
2019-03-24T18:13:15.637Z,31.65
2019-03-24T18:15:45.265Z,30.60
2019-03-24T18:18:14.922Z,29.70
2019-03-24T18:20:44.625Z,28.98
2019-03-24T18:23:14.291Z,30.05
2019-03-24T18:25:43.907Z,29.50
2019-03-24T18:28:13.577Z,30.15
2019-03-24T18:30:43.216Z,30.90
2019-03-24T18:33:12.864Z,32.23
2019-03-24T18:35:42.503Z,30.00
2019-03-24T18:38:12.200Z,29.87
2019-03-24T18:40:41.868Z,32.48
2019-03-24T18:43:11.492Z,29.27
2019-03-24T18:45:41.143Z,28.98
2019-03-24T18:48:10.859Z,30.55
2019-03-24T18:50:40.506Z,31.85
2019-03-24T18:53:10.145Z,30.80
2019-03-24T18:55:39.802Z,31.55
2019-03-24T18:58:09.434Z,31.68
2019-03-24T19:00:39.093Z,29.72
2019-03-24T19:03:08.795Z,32.23
2019-03-24T19:05:38.459Z,31.85
2019-03-24T19:08:08.302Z,33.80
2019-03-24T19:10:37.928Z,31.87
2019-03-24T19:13:07.730Z,30.70
2019-03-24T19:15:37.601Z,31.57
2019-03-24T19:18:07.502Z,32.60
2019-03-24T19:20:37.226Z,32.48
2019-03-24T19:23:06.891Z,31.37
2019-03-24T19:25:36.573Z,33.80
2019-03-24T19:28:06.598Z,31.45
2019-03-24T19:30:38.939Z,31.48
2019-03-24T19:33:08.733Z,32.25
2019-03-24T19:35:38.595Z,33.05
2019-03-24T19:38:08.459Z,36.17
2019-03-24T19:40:38.158Z,36.00
2019-03-24T19:43:07.958Z,35.43
2019-03-24T19:45:37.704Z,33.92
2019-03-24T19:48:07.529Z,32.70
2019-03-24T19:50:37.255Z,32.40
2019-03-24T19:53:07.022Z,32.58
2019-03-24T19:55:36.682Z,31.45
2019-03-24T19:58:06.379Z,32.30
2019-03-24T20:00:36.194Z,34.35
2019-03-24T20:03:06.248Z,33.67
2019-03-24T20:05:36.027Z,36.17
2019-03-24T20:08:05.920Z,33.20
2019-03-24T20:10:35.615Z,33.80
2019-03-24T20:13:05.422Z,32.98
2019-03-24T20:15:35.140Z,34.65
2019-03-24T20:18:04.915Z,31.97
2019-03-24T20:20:34.565Z,30.32
2019-03-24T20:23:04.262Z,31.23
2019-03-24T20:25:33.908Z,31.55
2019-03-24T20:28:03.565Z,31.55
2019-03-24T20:30:33.191Z,36.35
2019-03-24T20:33:02.855Z,31.60
2019-03-24T20:35:32.497Z,31.82
2019-03-24T20:38:02.149Z,32.65
2019-03-24T20:40:31.779Z,32.10
2019-03-24T20:43:01.426Z,31.48
2019-03-24T20:45:31.056Z,31.20
2019-03-24T20:48:00.720Z,31.57
2019-03-24T20:50:30.641Z,34.92
2019-03-24T20:53:05.653Z,30.55
2019-03-24T20:55:34.263Z,33.35
2019-03-24T20:58:03.116Z,38.33
2019-03-24T21:00:37.422Z,36.63
2019-03-24T21:05:37.640Z,34.58
2019-03-24T21:08:09.075Z,34.83
2019-03-24T21:10:38.800Z,32.75
2019-03-24T21:13:08.568Z,33.08
2019-03-24T21:15:38.290Z,32.60
2019-03-24T21:18:07.929Z,32.67
2019-03-24T21:20:37.585Z,33.13
2019-03-24T21:23:07.278Z,29.70
2019-03-24T21:25:36.952Z,31.05
2019-03-24T21:28:06.644Z,30.57
2019-03-24T21:30:40.074Z,28.75
2019-03-24T21:33:10.203Z,31.23
2019-03-24T21:35:40.011Z,31.62
2019-03-24T21:38:09.733Z,31.80
2019-03-24T21:40:39.365Z,33.15
2019-03-24T21:43:09.090Z,32.13
2019-03-24T21:45:38.722Z,30.25
2019-03-24T21:48:08.371Z,30.40
2019-03-24T21:50:37.992Z,31.87
2019-03-24T21:53:07.716Z,31.87
2019-03-24T21:55:37.357Z,32.10
2019-03-24T21:58:07.140Z,31.42
2019-03-24T22:00:37.876Z,33.20
2019-03-24T22:03:08.073Z,35.73
2019-03-24T22:05:37.840Z,36.42
2019-03-24T22:08:08.139Z,37.93
2019-03-24T22:10:37.913Z,36.08
2019-03-24T22:13:07.559Z,35.92
2019-03-24T22:15:37.182Z,37.85
2019-03-24T22:18:07.043Z,37.65
2019-03-24T22:20:48.259Z,37.70
2019-03-24T22:23:08.134Z,37.25
2019-03-24T22:25:37.764Z,38.28
2019-03-24T22:28:07.456Z,38.25
2019-03-24T22:30:37.181Z,36.53
2019-03-24T22:33:06.809Z,38.70
2019-03-24T22:35:36.467Z,37.88
2019-03-24T22:38:06.233Z,39.35
2019-03-24T22:40:35.959Z,37.20
2019-03-24T22:43:05.733Z,36.77
2019-03-24T22:45:35.458Z,38.38
2019-03-24T22:48:05.091Z,39.45
2019-03-24T22:50:34.742Z,35.23
2019-03-24T22:53:04.507Z,37.85
2019-03-24T22:55:34.163Z,39.18
2019-03-24T22:58:03.863Z,36.93
2019-03-24T23:00:52.999Z,40.83
2019-03-24T23:03:25.143Z,37.50
2019-03-24T23:05:54.713Z,36.48
2019-03-24T23:08:24.407Z,41.88
2019-03-24T23:10:54.133Z,36.20
2019-03-24T23:13:23.750Z,39.20
2019-03-24T23:15:53.404Z,35.00
2019-03-24T23:18:23.038Z,39.38
2019-03-24T23:20:52.693Z,37.25
2019-03-24T23:23:22.325Z,36.93
2019-03-24T23:25:52.058Z,38.80
2019-03-24T23:28:21.682Z,40.48
2019-03-24T23:30:51.400Z,39.15
2019-03-24T23:33:21.056Z,40.25
2019-03-24T23:35:50.715Z,38.67
2019-03-24T23:38:20.417Z,40.20
2019-03-24T23:40:50.065Z,36.28
2019-03-24T23:43:19.772Z,40.17
2019-03-24T23:45:49.437Z,36.48
2019-03-24T23:48:19.136Z,32.40
2019-03-24T23:50:49.205Z,30.25
2019-03-24T23:53:18.870Z,31.85
2019-03-24T23:55:48.492Z,32.53
2019-03-24T23:58:18.151Z,29.65
